Time;durP1;ratioP1;P1;durP2;ratioP2;P2;SDS_P1;SDS_P2;PMS_P1;PMS_P2;Temp;Humidity;BMP_temperature;BMP_pressure;BME280_temperature;BME280_humidity;BME280_pressure;Samples;Min_cycle;Max_cycle;Signal;HPM_P1;HPM_P2
2021/05/15 00:00:53;;;;;;;1.55;0.82;;;;;;;15.72;57.71;100221.94;5020554;28;20410;-79
2021/05/15 00:03:38;;;;;;;;;;;;;;;15.90;58.02;100225.03;5035707;28;20048;-79
2021/05/15 00:06:25;;;;;;;6.85;1.55;;;;;;;16.08;57.55;100231.66;5050286;28;19912;-79
2021/05/15 00:09:10;;;;;;;3.88;1.20;;;;;;;16.24;57.29;100230.41;5033467;28;20044;-79
2021/05/15 00:11:55;;;;;;;;;;;;;;;15.85;58.16;100239.06;5052724;28;20055;-79
2021/05/15 00:14:40;;;;;;;2.07;1.40;;;;;;;15.72;58.43;100233.72;5044371;28;19913;-79
2021/05/15 00:17:24;;;;;;;;;;;;;;;15.58;59.32;100241.66;5036702;28;20052;-79
2021/05/15 00:20:28;;;;;;;2.40;1.35;;;;;;;15.36;59.16;100237.63;5032587;28;19917;-78
2021/05/15 00:23:13;;;;;;;4.75;1.33;;;;;;;15.33;59.67;100248.50;5035319;28;20068;-78
2021/05/15 00:29:20;;;;;;;7.80;4.32;;;;;;;14.94;62.63;100250.34;5018003;28;20518;-78
2021/05/15 00:32:24;;;;;;;6.22;4.40;;;;;;;14.91;63.53;100240.91;5034552;28;20524;-78
2021/05/15 00:35:10;;;;;;;8.60;5.38;;;;;;;14.96;63.20;100237.13;5037026;28;20044;-79
2021/05/15 00:37:56;;;;;;;16.00;6.32;;;;;;;14.90;63.84;100246.75;5034455;28;20064;-79
2021/05/15 00:40:41;;;;;;;;;;;;;;;14.76;64.96;100249.16;5019442;28;20049;-78
2021/05/15 00:46:51;;;;;;;6.75;3.83;;;;;;;14.63;65.42;100234.75;5028145;28;20040;-79
2021/05/15 00:49:36;;;;;;;6.28;5.43;;;;;;;14.55;65.79;100235.72;5034711;28;20040;-79
2021/05/15 00:52:21;;;;;;;7.20;5.43;;;;;;;14.46;65.70;100230.44;5034440;28;20556;-79
2021/05/15 00:55:09;;;;;;;7.57;4.03;;;;;;;14.71;65.38;100231.06;5045264;28;20048;-79
2021/05/15 00:57:55;;;;;;;6.50;3.65;;;;;;;15.16;63.97;100225.06;5039837;28;20052;-80
2021/05/15 01:00:39;;;;;;;4.60;3.50;;;;;;;15.46;62.55;100238.22;5020527;28;20036;-80
2021/05/15 01:03:25;;;;;;;5.15;3.83;;;;;;;15.50;61.91;100242.59;5034028;28;20060;-79
2021/05/15 01:06:28;;;;;;;8.30;3.85;;;;;;;15.45;62.17;100239.34;5033353;28;20055;-79
2021/05/15 01:09:14;;;;;;;4.60;3.53;;;;;;;15.31;62.78;100245.34;5028226;28;20421;-79
2021/05/15 01:12:09;;;;;;;8.40;3.92;;;;;;;15.25;63.00;100247.56;5031677;28;20512;-79
2021/05/15 01:14:53;;;;;;;7.50;4.07;;;;;;;15.31;62.81;100248.06;5025148;28;20056;-79
2021/05/15 01:17:39;;;;;;;4.88;3.45;;;;;;;15.17;63.51;100243.09;5051836;28;20055;-79
2021/05/15 01:20:27;;;;;;;6.03;3.70;;;;;;;15.07;63.98;100251.84;5041175;28;20504;-79
2021/05/15 01:23:31;;;;;;;7.90;3.70;;;;;;;14.96;64.10;100248.06;5036068;28;20060;-79
2021/05/15 01:26:21;;;;;;;3.67;2.50;;;;;;;14.95;64.39;100252.75;5033853;28;20052;-78
2021/05/15 01:29:07;;;;;;;9.73;4.00;;;;;;;14.90;65.10;100255.75;5036734;28;20040;-78
2021/05/15 01:31:53;;;;;;;5.18;3.50;;;;;;;15.01;64.57;100258.75;5054461;28;20052;-78
2021/05/15 01:34:57;;;;;;;6.82;3.90;;;;;;;14.85;64.96;100264.25;5049576;28;20060;-78
2021/05/15 01:37:42;;;;;;;;;;;;;;;15.01;64.48;100258.75;5032681;28;20048;-78
2021/05/15 01:40:27;;;;;;;6.40;3.65;;;;;;;14.97;64.48;100246.91;5018587;28;19913;-80
2021/05/15 01:43:18;;;;;;;9.65;3.75;;;;;;;14.97;64.99;100242.25;5039811;28;20048;-80
2021/05/15 01:52:48;;;;;;;5.07;4.03;;;;;;;14.82;65.62;100231.31;5033210;28;20523;-81
2021/05/15 01:55:32;;;;;;;9.43;3.72;;;;;;;14.82;65.50;100231.31;5037823;28;20053;-80
2021/05/15 01:58:17;;;;;;;;;;;;;;;14.78;65.52;100242.16;5040030;28;20536;-80
2021/05/15 02:01:40;;;;;;;3.45;3.03;;;;;;;14.85;65.34;100247.81;5016382;28;19914;-81
2021/05/15 02:04:25;;;;;;;5.95;3.22;;;;;;;14.93;65.04;100251.53;5053544;28;20405;-80
2021/05/15 02:07:29;;;;;;;;;;;;;;;14.99;64.76;100253.63;5055173;28;20064;-80
2021/05/15 02:10:14;;;;;;;4.07;2.72;;;;;;;15.00;64.33;100237.97;5041558;28;19913;-81
2021/05/15 02:13:18;;;;;;;10.02;2.08;;;;;;;15.22;63.73;100237.31;5055497;28;20433;-80
2021/05/15 02:16:22;;;;;;;6.60;3.00;;;;;;;15.59;63.09;100245.97;5046933;28;20049;-80
2021/05/15 02:19:07;;;;;;;3.55;2.85;;;;;;;15.81;62.06;100237.03;5044878;28;20520;-79
2021/05/15 02:21:53;;;;;;;6.13;3.30;;;;;;;15.67;62.44;100244.16;5045653;28;20045;-81
2021/05/15 02:24:38;;;;;;;3.30;3.00;;;;;;;15.29;63.57;100244.88;5047547;28;20044;-81
2021/05/15 02:27:23;;;;;;;4.07;2.63;;;;;;;15.12;64.54;100250.78;5048529;28;20044;-81
2021/05/15 02:30:08;;;;;;;;;;;;;;;15.38;63.38;100256.47;5034396;28;20531;-81
2021/05/15 02:32:53;;;;;;;4.43;3.43;;;;;;;15.29;63.37;100253.09;5043985;28;19912;-80
2021/05/15 02:35:38;;;;;;;;;;;;;;;15.09;64.81;100257.75;5055649;28;20294;-80
2021/05/15 02:38:24;;;;;;;4.83;2.83;;;;;;;15.09;64.68;100252.28;5038489;28;19913;-79
2021/05/15 02:41:09;;;;;;;5.45;3.38;;;;;;;15.25;64.22;100255.78;5051020;28;20060;-79
2021/05/15 02:43:54;;;;;;;;;;;;;;;15.16;64.58;100246.16;5043068;28;20044;-79
2021/05/15 02:46:57;;;;;;;8.85;3.30;;;;;;;15.16;64.50;100252.44;5039509;28;20304;-79
2021/05/15 02:49:42;;;;;;;10.48;3.55;;;;;;;14.85;65.45;100250.53;5033349;28;20045;-79
2021/05/15 02:52:27;;;;;;;;;;;;;;;14.93;65.42;100257.00;5057376;28;20152;-79
2021/05/15 02:55:31;;;;;;;4.93;3.45;;;;;;;15.02;65.28;100268.56;5053926;28;19912;-81
2021/05/15 02:58:16;;;;;;;5.15;3.70;;;;;;;15.04;65.38;100260.75;5035356;28;20048;-81
2021/05/15 03:01:20;;;;;;;5.93;3.42;;;;;;;15.09;64.91;100267.91;5036738;28;20041;-81
2021/05/15 03:04:24;;;;;;;3.85;3.42;;;;;;;15.16;64.47;100249.69;5044435;28;20416;-81
2021/05/15 03:07:08;;;;;;;7.40;3.40;;;;;;;15.24;64.50;100258.84;5051822;28;20105;-80
2021/05/15 03:09:54;;;;;;;4.90;3.80;;;;;;;15.15;64.68;100261.00;5038370;28;20060;-82
2021/05/15 03:12:39;;;;;;;3.03;2.50;;;;;;;15.02;65.80;100265.00;5034707;28;20049;-79
2021/05/15 03:15:25;;;;;;;7.75;4.22;;;;;;;15.01;65.53;100269.69;5050031;28;20048;-79
2021/05/15 03:18:10;;;;;;;5.13;3.50;;;;;;;15.10;65.70;100261.28;5041541;28;20044;-80
2021/05/15 03:20:55;;;;;;;;;;;;;;;15.25;64.79;100264.00;5048441;28;20049;-80
2021/05/15 03:23:40;;;;;;;10.40;4.63;;;;;;;15.19;65.10;100262.66;5058928;28;19928;-79
2021/05/15 03:26:26;;;;;;;5.68;3.92;;;;;;;15.09;65.52;100248.72;5033707;28;20033;-81
2021/05/15 03:29:11;;;;;;;5.18;4.20;;;;;;;15.23;65.10;100257.28;5042408;28;20049;-79
2021/05/15 03:31:57;;;;;;;6.75;3.30;;;;;;;15.33;64.51;100248.50;5044132;28;20053;-80
2021/05/15 03:34:42;;;;;;;9.13;4.30;;;;;;;15.28;64.88;100246.84;5022662;28;20044;-79
2021/05/15 03:37:27;;;;;;;4.70;3.38;;;;;;;15.21;64.75;100252.16;5031121;28;20068;-80
2021/05/15 03:40:12;;;;;;;;;;;;;;;15.06;65.38;100244.78;5038362;28;20428;-80
2021/05/15 03:43:15;;;;;;;4.67;3.07;;;;;;;15.12;64.90;100240.63;5049000;28;19913;-80
2021/05/15 03:46:19;;;;;;;8.57;4.20;;;;;;;15.29;64.17;100231.97;5038316;28;20056;-80
2021/05/15 03:49:22;;;;;;;5.18;4.13;;;;;;;15.03;65.26;100229.06;5018179;28;20417;-80
2021/05/15 03:52:07;;;;;;;8.10;3.90;;;;;;;14.87;66.11;100228.31;5025622;28;20060;-80
2021/05/15 03:55:11;;;;;;;7.50;4.25;;;;;;;14.81;66.38;100235.19;5041192;28;20045;-80
2021/05/15 03:58:15;;;;;;;16.42;4.13;;;;;;;14.88;66.70;100244.34;5038474;28;20053;-79
2021/05/15 04:00:59;;;;;;;8.32;3.47;;;;;;;15.18;65.73;100243.88;5037563;28;20617;-80
2021/05/15 04:03:45;;;;;;;5.25;3.35;;;;;;;15.46;64.10;100240.94;5051134;28;20056;-80
2021/05/15 04:06:30;;;;;;;6.15;3.63;;;;;;;15.53;63.70;100244.69;5039910;28;20044;-80
2021/05/15 04:09:33;;;;;;;8.82;3.67;;;;;;;15.29;64.23;100240.19;5037127;28;20049;-79
2021/05/15 04:12:45;;;;;;;3.53;2.65;;;;;;;15.33;63.98;100246.56;5037295;28;20410;-79
2021/05/15 04:18:18;;;;;;;6.20;3.25;;;;;;;14.96;65.27;100272.72;5057617;28;20405;-80
2021/05/15 04:21:03;;;;;;;;;;;;;;;14.98;65.46;100275.91;5060726;28;20048;-80
2021/05/15 04:23:48;;;;;;;3.45;3.15;;;;;;;14.97;65.31;100274.31;5038062;28;19913;-78
2021/05/15 04:29:38;;;;;;;6.25;3.20;;;;;;;14.99;65.32;100269.25;5026658;28;20048;-79
2021/05/15 04:32:22;;;;;;;2.88;2.53;;;;;;;15.21;65.16;100271.34;5035042;28;20404;-80
2021/05/15 04:38:31;;;;;;;6.03;3.40;;;;;;;15.30;63.91;100266.44;5021861;28;20057;-80
2021/05/15 04:41:16;;;;;;;5.60;3.78;;;;;;;15.23;64.23;100266.31;5051054;28;20620;-80
2021/05/15 04:44:01;;;;;;;;;;;;;;;15.18;64.81;100277.53;5050178;28;20057;-81
2021/05/15 04:46:46;;;;;;;5.00;3.25;;;;;;;15.26;64.45;100282.03;5035450;28;19913;-79
2021/05/15 04:49:31;;;;;;;4.82;3.17;;;;;;;15.27;64.74;100275.41;5036367;28;20049;-79
2021/05/15 04:52:15;;;;;;;;;;;;;;;15.21;64.67;100273.28;5055541;28;20044;-79
2021/05/15 04:55:00;;;;;;;4.15;2.20;;;;;;;15.50;63.86;100272.75;5053974;28;19917;-79
2021/05/15 04:57:46;;;;;;;2.60;1.92;;;;;;;15.91;62.92;100275.97;5047798;28;20044;-79
2021/05/15 05:00:31;;;;;;;7.22;4.07;;;;;;;16.10;61.92;100268.50;5042456;28;20507;-78
2021/05/15 05:03:16;;;;;;;;;;;;;;;15.99;62.01;100286.75;5044052;28;20515;-78
2021/05/15 05:09:05;;;;;;;5.68;2.90;;;;;;;15.97;62.51;100269.84;5038615;28;20048;-79
2021/05/15 05:11:49;;;;;;;;;;;;;;;16.30;61.42;100271.25;5052981;28;20052;-81
2021/05/15 05:14:37;;;;;;;6.67;2.80;;;;;;;16.42;61.10;100277.34;5043605;28;19913;-78
2021/05/15 05:17:22;;;;;;;4.57;3.20;;;;;;;16.55;60.59;100280.72;5042847;28;20056;-79
2021/05/15 05:20:07;;;;;;;;;;;;;;;16.47;60.26;100281.72;5053344;28;20048;-78
2021/05/15 05:23:10;;;;;;;7.30;3.42;;;;;;;16.16;60.24;100278.03;5055496;28;19912;-79
2021/05/15 05:25:55;;;;;;;8.07;5.25;;;;;;;16.09;60.57;100266.16;5038951;28;20524;-79
2021/05/15 05:28:43;;;;;;;3.90;2.72;;;;;;;16.04;60.42;100267.25;5031281;28;20068;-79
2021/05/15 05:31:28;;;;;;;5.47;4.53;;;;;;;15.90;60.81;100269.69;5015756;28;20048;-78
2021/05/15 05:34:12;;;;;;;;;;;;;;;15.93;61.38;100279.94;5025877;28;20056;-78
2021/05/15 05:36:57;;;;;;;7.22;4.10;;;;;;;15.93;62.15;100281.91;5055051;22;20405;-80
2021/05/15 05:39:42;;;;;;;6.28;2.80;;;;;;;15.91;62.18;100276.78;5036198;28;20064;-81
2021/05/15 05:42:29;;;;;;;10.85;4.72;;;;;;;15.90;62.16;100280.66;5037995;28;20056;-80
2021/05/15 05:48:37;;;;;;;6.43;4.03;;;;;;;15.80;61.82;100286.72;5035744;28;20045;-79
2021/05/15 05:51:22;;;;;;;;;;;;;;;15.81;62.15;100283.63;5038450;28;20047;-81
2021/05/15 05:54:07;;;;;;;9.07;5.00;;;;;;;15.70;61.84;100268.09;5030024;28;20292;-80
2021/05/15 05:56:52;;;;;;;12.90;5.40;;;;;;;15.76;62.33;100283.13;5023727;28;20040;-81
2021/05/15 05:59:37;;;;;;;;;;;;;;;15.99;62.53;100278.50;5032051;28;20040;-84
2021/05/15 06:02:40;;;;;;;8.88;4.32;;;;;;;16.31;61.96;100281.84;5039852;28;20305;-85
2021/05/15 06:05:24;;;;;;;10.35;4.38;;;;;;;16.46;61.01;100280.94;5034215;28;20048;-85
2021/05/15 06:08:10;;;;;;;;;;;;;;;16.60;60.85;100294.97;5037755;28;20047;-84
2021/05/15 06:10:55;;;;;;;12.30;4.57;;;;;;;16.83;60.16;100283.97;5021359;28;19917;-80
2021/05/15 06:13:59;;;;;;;8.68;4.40;;;;;;;17.05;59.47;100288.66;5029558;28;20076;-81
2021/05/15 06:17:03;;;;;;;7.15;3.58;;;;;;;17.10;58.90;100277.34;5026919;28;20041;-82
2021/05/15 06:19:50;;;;;;;6.43;4.47;;;;;;;17.08;58.54;100287.91;5017618;28;20049;-81
2021/05/15 06:22:35;;;;;;;15.05;4.05;;;;;;;17.06;58.68;100282.00;5015624;28;20041;-79
2021/05/15 06:25:20;;;;;;;3.60;2.88;;;;;;;17.22;58.82;100289.28;5014013;28;20053;-82
2021/05/15 06:28:04;;;;;;;;;;;;;;;17.31;58.35;100289.81;5020562;28;20056;-82
2021/05/15 06:30:51;;;;;;;8.15;5.07;;;;;;;17.17;58.22;100289.59;5032916;28;19917;-83
2021/05/15 06:33:36;;;;;;;;;;;;;;;17.25;58.55;100294.03;5023857;28;20441;-83
2021/05/15 06:36:21;;;;;;;6.57;3.90;;;;;;;17.34;57.60;100287.09;5021418;28;19917;-81
2021/05/15 06:39:25;;;;;;;9.75;4.63;;;;;;;17.16;57.66;100291.56;5022373;28;20284;-84
2021/05/15 06:42:10;;;;;;;;;;;;;;;17.38;57.53;100290.69;5028474;28;20053;-83
2021/05/15 06:45:13;;;;;;;9.77;5.10;;;;;;;17.46;56.60;100297.09;5027746;28;19913;-83
2021/05/15 06:47:58;;;;;;;20.08;5.45;;;;;;;17.58;56.11;100299.59;5022800;28;20053;-83
2021/05/15 06:50:43;;;;;;;;;;;;;;;17.38;55.85;100301.69;5020968;28;20053;-81
2021/05/15 06:53:28;;;;;;;32.50;5.97;;;;;;;17.63;55.95;100299.31;5024099;28;20301;-82
2021/05/15 06:56:13;;;;;;;;;;;;;;;17.56;55.73;100304.69;5022142;28;20045;-82
2021/05/15 06:58:57;;;;;;;14.07;7.50;;;;;;;17.43;55.99;100295.06;5032631;28;20301;-83
2021/05/15 07:01:43;;;;;;;13.73;8.45;;;;;;;18.99;50.20;100292.13;5022537;28;20102;-83
2021/05/15 07:04:28;;;;;;;13.05;7.63;;;;;;;21.10;45.65;100298.81;5020988;28;20521;-81
2021/05/15 07:10:55;;;;;;;16.02;6.90;;;;;;;20.23;47.31;100287.28;5020639;28;20406;-82
2021/05/15 07:13:40;;;;;;;43.30;11.75;;;;;;;20.75;46.35;100287.78;5032691;28;20092;-85
2021/05/15 07:16:25;;;;;;;19.33;8.13;;;;;;;21.17;44.71;100293.31;5022851;28;20502;-80
2021/05/15 07:22:13;;;;;;;12.73;5.57;;;;;;;20.61;46.48;100283.03;5041492;28;20052;-78
2021/05/15 07:24:59;;;;;;;;;;;;;;;20.56;46.93;100293.69;5040728;28;20048;-80
2021/05/15 07:27:43;;;;;;;11.00;5.97;;;;;;;20.54;46.52;100293.28;5049134;28;19912;-77
2021/05/15 07:30:28;;;;;;;;;;;;;;;21.42;44.22;100301.56;5026956;28;20401;-79
2021/05/15 07:33:13;;;;;;;6.90;5.50;;;;;;;20.62;45.65;100297.66;5041345;28;19940;-80
2021/05/15 07:35:58;;;;;;;6.40;4.60;;;;;;;20.41;45.41;100290.91;5038426;28;20044;-78
2021/05/15 07:38:43;;;;;;;;;;;;;;;24.27;38.45;100310.13;5036143;28;20048;-80
2021/05/15 07:41:28;;;;;;;11.27;4.50;;;;;;;25.26;35.36;100308.56;5039195;28;19913;-78
2021/05/15 07:44:13;;;;;;;7.97;4.47;;;;;;;25.19;35.06;100311.50;5036649;28;20053;-76
2021/05/15 07:47:17;;;;;;;11.95;4.30;;;;;;;24.07;37.73;100306.41;5034264;28;20052;-79
2021/05/15 07:50:02;;;;;;;4.80;4.00;;;;;;;25.45;35.37;100315.38;5038510;28;20052;-80
2021/05/15 07:52:47;;;;;;;8.50;4.18;;;;;;;25.48;35.33;100315.34;5037361;28;20041;-81
2021/05/15 07:55:32;;;;;;;11.40;4.05;;;;;;;24.94;36.15;100313.91;5042112;28;20056;-82
2021/05/15 07:58:17;;;;;;;8.40;4.10;;;;;;;25.43;35.25;100317.81;5040383;28;20061;-84
2021/05/15 08:01:02;;;;;;;13.55;3.92;;;;;;;25.46;35.30;100314.97;5037471;28;20074;-83
2021/05/15 08:06:51;;;;;;;8.20;3.15;;;;;;;25.81;35.62;100316.28;5038326;28;20052;-82
2021/05/15 08:09:54;;;;;;;7.70;3.22;;;;;;;25.29;35.45;100324.44;5037899;28;20324;-84
2021/05/15 08:12:40;;;;;;;8.00;3.35;;;;;;;24.81;35.70;100321.25;5038714;28;20068;-83
2021/05/15 08:15:26;;;;;;;6.38;3.40;;;;;;;23.27;38.41;100323.50;5021148;28;20048;-83
2021/05/15 08:18:11;;;;;;;5.68;3.90;;;;;;;21.61;41.81;100326.03;5034012;28;20044;-82
2021/05/15 08:20:58;;;;;;;7.35;3.40;;;;;;;21.50;43.10;100330.81;5022700;28;20056;-82
2021/05/15 08:23:43;;;;;;;7.57;4.05;;;;;;;22.50;40.44;100328.47;5020948;28;20049;-83
2021/05/15 08:26:28;;;;;;;9.38;4.80;;;;;;;22.16;41.49;100329.03;5030596;28;20544;-83
2021/05/15 08:29:14;;;;;;;9.40;4.40;;;;;;;21.15;43.11;100334.41;5036871;28;20052;-80
2021/05/15 08:32:00;;;;;;;9.25;4.43;;;;;;;20.41;45.49;100321.28;5035272;28;20052;-80
2021/05/15 08:34:45;;;;;;;11.60;3.88;;;;;;;20.90;44.64;100341.88;5031110;28;20052;-81
2021/05/15 08:37:48;;;;;;;8.98;4.00;;;;;;;21.07;43.90;100335.56;5033830;28;20064;-81
2021/05/15 08:40:34;;;;;;;6.07;4.05;;;;;;;21.07;43.45;100327.28;5033163;28;20045;-82
2021/05/15 08:43:20;;;;;;;5.70;4.38;;;;;;;20.21;44.39;100339.34;5031107;28;20472;-82
2021/05/15 08:46:11;;;;;;;7.78;4.45;;;;;;;20.20;46.27;100343.28;5038293;28;20072;-84
2021/05/15 08:49:16;;;;;;;6.35;4.30;;;;;;;20.43;44.22;100342.97;5040039;28;20040;-83
2021/05/15 08:52:20;;;;;;;10.73;4.13;;;;;;;21.98;41.80;100339.41;5033139;28;20116;-81
2021/05/15 08:55:11;;;;;;;10.90;3.95;;;;;;;21.57;42.51;100349.38;5035775;28;20528;-79
2021/05/15 08:57:57;;;;;;;30.77;4.07;;;;;;;21.23;43.83;100347.03;5036677;28;20053;-80
2021/05/15 09:00:44;;;;;;;7.18;3.28;;;;;;;20.40;46.14;100343.78;5039913;28;20048;-82
2021/05/15 09:03:30;;;;;;;6.20;2.83;;;;;;;19.86;47.44;100344.72;5039835;28;20048;-82
2021/05/15 09:06:15;;;;;;;15.65;5.10;;;;;;;19.53;47.28;100340.97;5037836;28;20040;-81
2021/05/15 09:09:00;;;;;;;7.15;5.10;;;;;;;19.20;48.27;100328.09;5039687;28;20057;-81
2021/05/15 09:11:46;;;;;;;;;;;;;;;18.94;49.77;100342.09;5035297;28;20060;-81
2021/05/15 09:14:31;;;;;;;8.80;3.58;;;;;;;18.92;49.86;100327.09;5032795;28;19916;-82
2021/05/15 09:17:17;;;;;;;;;;;;;;;18.82;50.04;100327.81;5032930;28;20053;-82
2021/05/15 09:20:28;;;;;;;6.75;4.68;;;;;;;18.69;48.68;100319.81;5034609;28;19913;-82
2021/05/15 09:23:33;;;;;;;5.05;4.07;;;;;;;18.62;50.14;100317.00;5039503;28;20406;-80
2021/05/15 09:26:20;;;;;;;;;;;;;;;18.55;50.79;100321.63;5039173;28;20043;-82
2021/05/15 09:29:08;;;;;;;11.30;4.70;;;;;;;18.59;50.38;100314.22;5037676;28;19913;-82
2021/05/15 09:31:53;;;;;;;7.25;5.00;;;;;;;18.46;50.31;100307.34;5027082;28;20045;-83
2021/05/15 09:34:45;;;;;;;;;;;;;;;18.50;50.24;100313.69;5041892;28;20049;-84
2021/05/15 09:37:36;;;;;;;5.13;4.18;;;;;;;18.16;50.89;100305.47;5035703;28;19913;-82
2021/05/15 09:40:28;;;;;;;7.07;3.75;;;;;;;18.33;51.18;100309.59;5038551;28;20048;-84
2021/05/15 09:43:14;;;;;;;6.80;4.60;;;;;;;18.46;50.19;100302.66;5040903;28;20040;-84
2021/05/15 09:45:58;;;;;;;6.45;4.30;;;;;;;18.53;50.77;100299.97;5039307;28;20409;-83
2021/05/15 09:48:52;;;;;;;8.32;3.95;;;;;;;18.58;50.50;100296.13;5040511;28;20052;-82
2021/05/15 09:51:39;;;;;;;15.80;4.60;;;;;;;18.59;50.49;100295.72;5040169;28;20040;-82
2021/05/15 09:54:44;;;;;;;7.60;4.05;;;;;;;18.56;49.62;100285.47;5037953;28;20072;-82
2021/05/15 09:57:29;;;;;;;11.30;4.05;;;;;;;18.61;50.13;100296.13;5034034;28;20052;-81
2021/05/15 10:00:16;;;;;;;9.27;4.25;;;;;;;18.62;50.45;100289.47;5033182;28;20056;-81
2021/05/15 10:03:00;;;;;;;10.20;3.65;;;;;;;18.64;50.65;100286.34;5039310;28;20048;-81
2021/05/15 10:06:06;;;;;;;9.40;3.83;;;;;;;18.71;50.14;100280.88;5036150;28;20409;-82
2021/05/15 10:09:09;;;;;;;9.05;4.28;;;;;;;18.47;48.41;100284.97;5039872;28;20056;-82
2021/05/15 10:11:54;;;;;;;23.65;8.48;;;;;;;18.61;51.40;100281.56;5022232;28;20052;-82
2021/05/15 10:14:40;;;;;;;18.17;6.78;;;;;;;18.64;52.45;100284.34;5041526;28;20052;-82
2021/05/15 10:17:27;;;;;;;;;;;;;;;18.65;51.27;100280.44;5034681;28;20521;-81
2021/05/15 10:20:12;;;;;;;5.50;4.22;;;;;;;18.61;49.94;100278.81;5039346;28;20316;-81
2021/05/15 10:22:57;;;;;;;11.45;5.57;;;;;;;18.63;50.92;100277.28;5039233;28;20048;-81
2021/05/15 10:25:42;;;;;;;12.85;4.78;;;;;;;18.59;52.45;100273.69;5037936;28;20069;-82
2021/05/15 10:28:29;;;;;;;7.50;4.55;;;;;;;18.59;53.08;100276.44;5035298;28;20048;-81
2021/05/15 10:34:30;;;;;;;;;;;;;;;18.67;53.91;100275.34;5037051;28;20044;-82
2021/05/15 10:37:20;;;;;;;10.18;4.00;;;;;;;18.70;54.35;100262.75;5032932;28;19913;-82
2021/05/15 10:40:42;;;;;;;9.15;4.30;;;;;;;18.78;53.56;100259.69;5039050;28;20520;-82
2021/05/15 10:43:35;;;;;;;5.05;3.53;;;;;;;18.76;52.84;100270.28;5039418;28;20060;-80
2021/05/15 10:46:28;;;;;;;14.20;4.57;;;;;;;18.73;51.46;100257.28;5036846;28;20052;-81
2021/05/15 10:49:32;;;;;;;6.00;3.42;;;;;;;18.75;52.49;100260.44;5039095;28;20064;-82
2021/05/15 10:52:22;;;;;;;5.40;4.13;;;;;;;18.76;51.34;100256.53;5039064;28;20057;-82
2021/05/15 10:55:25;;;;;;;7.55;4.30;;;;;;;18.80;49.29;100251.81;5039490;28;20044;-82
2021/05/15 10:58:14;;;;;;;4.35;3.67;;;;;;;18.84;51.21;100259.34;5034146;28;20048;-82
2021/05/15 11:01:08;;;;;;;8.05;3.08;;;;;;;18.93;49.11;100268.88;5037883;28;20767;-82
2021/05/15 11:03:53;;;;;;;6.35;4.00;;;;;;;18.83;47.84;100264.06;5039000;28;20044;-81
2021/05/15 11:06:37;;;;;;;;;;;;;;;19.02;48.75;100269.31;5033931;28;20048;-80
2021/05/15 11:09:27;;;;;;;5.07;3.13;;;;;;;19.03;48.98;100267.34;5037079;28;19913;-81
2021/05/15 11:12:15;;;;;;;5.00;3.15;;;;;;;19.02;48.61;100263.00;5038753;28;20595;-82
2021/05/15 11:15:04;;;;;;;5.63;3.25;;;;;;;18.97;48.80;100260.63;5042683;28;20056;-82
2021/05/15 11:18:04;;;;;;;5.55;3.38;;;;;;;19.01;47.21;100245.69;5021056;28;20052;-81
2021/05/15 11:20:49;;;;;;;4.78;2.30;;;;;;;18.86;47.97;100249.50;5042550;28;20056;-82
2021/05/15 11:23:36;;;;;;;2.97;1.90;;;;;;;18.88;46.00;100257.41;5042263;28;20044;-82
2021/05/15 11:26:50;;;;;;;2.70;1.60;;;;;;;18.97;44.33;100249.59;5040871;28;20045;-81
2021/05/15 11:29:36;;;;;;;4.75;3.38;;;;;;;19.09;45.48;100239.06;5041780;28;20040;-81
2021/05/15 11:32:23;;;;;;;3.72;2.30;;;;;;;19.00;45.98;100238.59;5029065;28;20056;-81
2021/05/15 11:35:27;;;;;;;2.28;1.63;;;;;;;18.91;47.12;100245.59;5042080;28;20048;-80
2021/05/15 11:38:13;;;;;;;2.72;2.00;;;;;;;18.89;47.33;100242.47;5071100;22;20052;-80
2021/05/15 11:44:05;;;;;;;3.10;2.15;;;;;;;19.01;46.56;100244.88;5082900;28;20043;-80
2021/05/15 11:50:00;;;;;;;4.10;2.00;;;;;;;18.88;47.75;100229.84;5069679;28;20055;-80
2021/05/15 11:52:45;;;;;;;9.02;2.30;;;;;;;18.86;47.98;100223.91;5087723;28;20048;-80
2021/05/15 11:55:30;;;;;;;;;;;;;;;18.98;47.46;100218.91;5090936;28;20048;-80
2021/05/15 11:58:15;;;;;;;3.28;1.63;;;;;;;18.94;47.58;100211.78;5072600;28;19920;-80
2021/05/15 12:01:00;;;;;;;5.20;3.75;;;;;;;18.93;47.72;100222.03;5089523;28;20043;-80
2021/05/15 12:07:25;;;;;;;6.40;2.35;;;;;;;19.02;48.18;100202.38;5071648;28;20055;-80
2021/05/15 12:10:18;;;;;;;2.95;2.08;;;;;;;18.93;48.42;100196.44;5082241;28;20412;-80
2021/05/15 12:13:04;;;;;;;5.50;3.30;;;;;;;19.00;47.56;100193.69;5067168;28;20046;-81
2021/05/15 12:16:08;;;;;;;7.07;3.00;;;;;;;18.94;48.13;100189.75;5075874;28;20396;-80
2021/05/15 12:18:53;;;;;;;4.93;3.28;;;;;;;19.02;47.77;100194.13;5084983;28;20055;-80
2021/05/15 12:21:39;;;;;;;3.53;2.70;;;;;;;18.99;47.99;100187.41;5072794;28;20062;-80
2021/05/15 12:24:44;;;;;;;4.90;2.72;;;;;;;18.91;48.12;100190.50;5082205;28;20527;-80
2021/05/15 12:27:31;;;;;;;6.47;3.40;;;;;;;18.99;48.34;100189.38;5087022;28;20052;-79
2021/05/15 12:30:21;;;;;;;5.22;3.20;;;;;;;19.01;48.57;100178.75;5065937;28;20084;-81
2021/05/15 12:33:07;;;;;;;4.60;2.67;;;;;;;18.95;48.86;100178.31;5065617;28;20413;-81
2021/05/15 12:35:57;;;;;;;4.35;3.50;;;;;;;19.01;49.54;100178.75;5064137;28;20052;-81
2021/05/15 12:38:49;;;;;;;6.60;3.38;;;;;;;19.04;48.71;100175.25;5071287;28;20044;-81
2021/05/15 12:41:37;;;;;;;5.05;3.25;;;;;;;19.09;48.33;100167.41;5073861;28;20081;-82
2021/05/15 12:44:21;;;;;;;5.70;3.55;;;;;;;18.88;49.71;100167.28;5067228;28;20039;-81
2021/05/15 12:47:06;;;;;;;;;;;;;;;18.86;50.99;100161.34;5083626;28;20527;-81
2021/05/15 12:49:51;;;;;;;5.57;3.72;;;;;;;18.73;51.58;100158.13;5043053;28;20389;-80
2021/05/15 12:52:37;;;;;;;9.05;3.40;;;;;;;18.82;50.97;100160.53;5070872;28;20512;-80
2021/05/15 12:55:22;;;;;;;7.10;3.47;;;;;;;19.00;50.27;100152.34;5076818;28;20048;-81
2021/05/15 12:58:11;;;;;;;10.68;3.55;;;;;;;19.07;49.94;100150.44;5090253;28;20043;-80
2021/05/15 13:01:03;;;;;;;8.63;3.53;;;;;;;18.98;49.53;100138.19;5082665;28;20051;-81
2021/05/15 13:03:51;;;;;;;65.85;13.40;;;;;;;18.94;49.48;100148.41;5083097;28;20697;-79
2021/05/15 13:06:55;;;;;;;26.90;7.03;;;;;;;19.00;49.74;100144.09;5074808;28;20044;-80
2021/05/15 13:10:02;;;;;;;13.50;3.95;;;;;;;19.11;49.36;100140.22;5087278;28;20047;-80
2021/05/15 13:12:48;;;;;;;13.50;3.03;;;;;;;19.21;48.40;100138.69;5089420;28;20048;-80
2021/05/15 13:15:33;;;;;;;;;;;;;;;19.37;47.94;100141.13;5087907;28;20051;-80
2021/05/15 13:18:37;;;;;;;5.70;2.38;;;;;;;19.15;48.90;100140.22;5086323;28;19912;-80
2021/05/15 13:21:22;;;;;;;7.47;1.80;;;;;;;19.17;48.54;100127.66;5089124;28;20055;-80
2021/05/15 13:24:07;;;;;;;2.50;1.88;;;;;;;19.14;48.45;100128.44;5088173;28;20042;-80
2021/05/15 13:26:53;;;;;;;3.63;2.13;;;;;;;19.27;47.72;100117.84;5091365;28;20044;-80
2021/05/15 13:29:38;;;;;;;6.03;1.92;;;;;;;19.05;48.34;100119.72;5087340;28;20508;-80
2021/05/15 13:32:24;;;;;;;;;;;;;;;19.14;48.12;100135.91;5071471;28;20064;-80
2021/05/15 13:35:09;;;;;;;3.42;1.60;;;;;;;19.10;48.41;100130.38;5090680;28;19916;-80
2021/05/15 13:37:54;;;;;;;2.35;1.42;;;;;;;19.08;48.11;100127.22;5086592;28;20040;-80
2021/05/15 13:40:40;;;;;;;3.88;1.20;;;;;;;19.15;48.21;100121.72;5084727;28;20051;-80
2021/05/15 13:43:44;;;;;;;3.63;1.50;;;;;;;19.30;47.37;100116.28;5084298;28;20142;-80
2021/05/15 13:46:30;;;;;;;;;;;;;;;19.19;47.40;100111.53;5090843;28;20395;-82
2021/05/15 13:49:15;;;;;;;1.58;1.25;;;;;;;19.15;46.87;100096.13;5082141;28;19913;-82
2021/05/15 13:52:00;;;;;;;3.55;1.70;;;;;;;19.07;46.91;100095.31;5086557;28;20064;-81
2021/05/15 13:54:45;;;;;;;;;;;;;;;19.03;47.43;100100.03;5085302;28;20059;-81
2021/05/15 13:57:30;;;;;;;1.77;1.25;;;;;;;18.99;47.60;100104.75;5082480;28;19916;-81
2021/05/15 14:00:15;;;;;;;;;;;;;;;18.96;47.74;100099.19;5073275;28;20056;-81
2021/05/15 14:03:00;;;;;;;;;;;;;;;19.02;47.61;100100.41;5087288;28;19916;-82
2021/05/15 14:05:45;;;;;;;3.43;1.17;;;;;;;18.86;48.02;100105.44;5084180;28;19912;-81
2021/05/15 14:08:30;;;;;;;2.45;1.23;;;;;;;18.96;47.45;100105.50;5088670;28;20051;-81